KLITKSRC

Guest
Details From KLIT - Little Rock Adams Field
To KSRC - SEARCY MUNI
Flight Number -
Tags generated
Created
Modified
Stats Distance 38 nm / 70 km
Max Altitude 4,200 ft / 1,280 m
Waypoints 3
Social Downloads 0
Likes 0
Share VATSIM

Download

Looking for another format? Having issues loading an existing format? Contact us
Advertisement - Login to hide

Notes

Basic altitude profile: - Ascent Rate: 2000ft/min - Ascent Speed: 250kts - Cruise Altitude: 35000ft - Cruise Speed: 420kts - Descent Rate: 1500ft/min - Descent Speed: 250kts Options: - Use NATs: yes - Use PACOTS: yes - Use low airways: yes - Use high airways: yes

Route

KLIT DUMPI KSRC

ID Type Via Altitude Latitude Longitude Leg Dist Tot Dist Heading (true) Name
O KLIT APT - 0 ft / 0 m 34.72942˚ -92.22548˚ - 0 nm - Little Rock Adams Field
DUMPI FIX - 4,200 ft / 1,280 m 34.93825˚ -91.96135˚ 18 nm 18 nm 46° / 46° -
O KSRC APT - 0 ft / 0 m 35.21061˚ -91.73754˚ 19 nm 37 nm 34° / 34° SEARCY MUNI

Altitude Profile

Advertisement - Login to hide

KLIT

Details ICAO KLIT (LIT)
Name Little Rock Adams Field
Region United States
Timezone America/Chicago (UTC-6.0)
Stats Elevation 262 ft / 80 m (AMSL)
Location 34.729415° -92.225482°
Runways 3
Magnetic Variation 0.245° E

METAR

KLIT 150653Z 27003KT 10SM CLR 00/M04 A3018 RMK AO2 SLP225 T00001039

Decode

TAF

KLIT 150535Z 1506/1606 33003KT P6SM SKC FM151500 28006KT P6SM SCT120 SCT250 FM160000 VRB04KT P6SM SKC

Decode

Departure Runways

ID Width Length Bearing (true) Bearing (mag) Surface Threshold Offset Overrun Length
04L 150 ft / 46 m 8,274 ft / 2,522 m 46.37° 46.13° Concrete 297 ft / 91 m 0 ft / 0 m
04R 150 ft / 46 m 7,201 ft / 2,195 m 46.39° 46.15° Concrete 0 ft / 0 m 0 ft / 0 m
18 150 ft / 46 m 5,137 ft / 1,566 m 181.50° 181.26° Concrete 100 ft / 30 m 0 ft / 0 m
22L 150 ft / 46 m 7,201 ft / 2,195 m 226.40° 226.16° Concrete 0 ft / 0 m 0 ft / 0 m
22R 150 ft / 46 m 8,274 ft / 2,522 m 226.38° 226.14° Concrete 0 ft / 0 m 0 ft / 0 m
36 150 ft / 46 m 5,137 ft / 1,566 m 1.50° 1.26° Concrete 100 ft / 30 m 0 ft / 0 m

KSRC

Details ICAO KSRC
Name SEARCY MUNI
Region United States
Timezone America/Chicago (UTC-6.0)
Stats Elevation 264 ft / 80 m (AMSL)
Location 35.210607° -91.737538°
Runways 1
Magnetic Variation 0.127° W

METAR

KSRC 150656Z AUTO 29004KT 10SM CLR M03/M03 A3018 RMK AO2 SLP230 T10331033 FZRANO

Decode

TAF

Not found

Destination Runways

ID Width Length Bearing (true) Bearing (mag) Surface Threshold Offset Overrun Length
01 100 ft / 30 m 6,021 ft / 1,835 m 12.59° 12.72° Asphalt 500 ft / 152 m 0 ft / 0 m
19 100 ft / 30 m 6,021 ft / 1,835 m 192.60° 192.73° Asphalt 0 ft / 0 m 0 ft / 0 m

Approach Navaids

Runway Type Ident Frequency Range Bearing (true) Bearing (mag) Slope Elevation
01 Localiser IDSY 110.10 MHz 18 nm / 33 km 12.58° 12.71° - 250 ft / 76 m (AMSL)
01 Glidescope IDSY 110.10 MHz 10 nm / 19 km 12.59° 12.72° 3.00° 232 ft / 71 m (AMSL)
01 DME IDSY 110.10 MHz 18 nm / 33 km - - - 250 ft / 76 m (AMSL)